VLG3722 LEBL-LEMH
Flight info
| Callsign | VLG3722 |
|---|---|
| Flight time | 0h 31m |
| Altitude | 19000 |
| Route | DUNES Q700 SARGO |
| Aircraft | A21N/M-SDE2E3FGHIRWXY/LB1 |
Departure
| Time | 2026-05-04 19:09 |
|---|---|
| Airport | Josep Tarradellas Barcelona-El Prat Airport (LEBL) |
Arrival
| Time | 2026-05-04 19:40 |
|---|---|
| Airport | Menorca Airport (LEMH) |
| Time | Latitude | Longitude | Altitude | Speed | Heading |
|---|---|---|---|---|---|
| 2026-05-04 18:46 | 41.28961 | 2.07849 | 21 ft | 0 kts | 337° |
| 2026-05-04 18:58 | 41.28959 | 2.07850 | 21 ft | 3 kts | 337° |
| 2026-05-04 18:58 | 41.28935 | 2.07864 | 21 ft | 4 kts | 339° |
| 2026-05-04 18:59 | 41.28909 | 2.07873 | 21 ft | 4 kts | 0° |
| 2026-05-04 18:59 | 41.28885 | 2.07866 | 21 ft | 4 kts | 36° |
| 2026-05-04 18:59 | 41.28873 | 2.07850 | 21 ft | 1 kts | 62° |
| 2026-05-04 18:59 | 41.28871 | 2.07846 | 21 ft | 0 kts | 62° |
| 2026-05-04 19:02 | 41.28878 | 2.07865 | 21 ft | 9 kts | 63° |
| 2026-05-04 19:02 | 41.28912 | 2.07962 | 21 ft | 14 kts | 66° |
| 2026-05-04 19:02 | 41.28957 | 2.08096 | 21 ft | 12 kts | 81° |
| 2026-05-04 19:03 | 41.28938 | 2.08128 | 22 ft | 8 kts | 143° |
| 2026-05-04 19:03 | 41.28865 | 2.08173 | 23 ft | 14 kts | 156° |
| 2026-05-04 19:03 | 41.28772 | 2.08228 | 21 ft | 15 kts | 161° |
| 2026-05-04 19:03 | 41.28690 | 2.08274 | 21 ft | 9 kts | 107° |
| 2026-05-04 19:04 | 41.28715 | 2.08326 | 22 ft | 8 kts | 45° |
| 2026-05-04 19:04 | 41.28755 | 2.08417 | 22 ft | 17 kts | 65° |
| 2026-05-04 19:04 | 41.28809 | 2.08576 | 22 ft | 20 kts | 66° |
| 2026-05-04 19:04 | 41.28872 | 2.08758 | 22 ft | 23 kts | 65° |
| 2026-05-04 19:05 | 41.28947 | 2.08975 | 24 ft | 29 kts | 66° |
| 2026-05-04 19:05 | 41.29033 | 2.09229 | 23 ft | 30 kts | 67° |
| 2026-05-04 19:05 | 41.29122 | 2.09491 | 21 ft | 32 kts | 66° |
| 2026-05-04 19:05 | 41.29211 | 2.09754 | 23 ft | 32 kts | 64° |
| 2026-05-04 19:06 | 41.29297 | 2.09984 | 21 ft | 24 kts | 58° |
| 2026-05-04 19:06 | 41.29302 | 2.10164 | 22 ft | 19 kts | 112° |
| 2026-05-04 19:06 | 41.29295 | 2.10190 | 20 ft | 0 kts | 110° |
| 2026-05-04 19:06 | 41.29294 | 2.10190 | 20 ft | 0 kts | 110° |
| 2026-05-04 19:07 | 41.29294 | 2.10191 | 20 ft | 0 kts | 110° |
| 2026-05-04 19:08 | 41.29284 | 2.10229 | 19 ft | 10 kts | 110° |
| 2026-05-04 19:08 | 41.29227 | 2.10297 | 17 ft | 12 kts | 189° |
| 2026-05-04 19:08 | 41.29182 | 2.10207 | 18 ft | 18 kts | 245° |
| 2026-05-04 19:08 | 41.29016 | 2.09728 | 19 ft | 101 kts | 246° |
| 2026-05-04 19:09 | 41.28603 | 2.08519 | 139 ft | 169 kts | 244° |
| 2026-05-04 19:09 | 41.28073 | 2.07057 | 895 ft | 185 kts | 237° |
| 2026-05-04 19:09 | 41.27044 | 2.06029 | 1763 ft | 196 kts | 196° |
| 2026-05-04 19:09 | 41.25648 | 2.06085 | 2628 ft | 207 kts | 179° |
| 2026-05-04 19:10 | 41.24158 | 2.06262 | 3480 ft | 224 kts | 179° |
| 2026-05-04 19:10 | 41.22528 | 2.06314 | 4343 ft | 242 kts | 185° |
| 2026-05-04 19:10 | 41.20831 | 2.06189 | 5585 ft | 240 kts | 189° |
| 2026-05-04 19:10 | 41.19221 | 2.05971 | 7196 ft | 224 kts | 191° |
| 2026-05-04 19:11 | 41.17733 | 2.05649 | 8613 ft | 213 kts | 201° |
| 2026-05-04 19:11 | 41.16349 | 2.04912 | 9567 ft | 225 kts | 208° |
| 2026-05-04 19:11 | 41.14903 | 2.03936 | 10335 ft | 240 kts | 210° |
| 2026-05-04 19:11 | 41.13413 | 2.02887 | 11358 ft | 244 kts | 210° |
| 2026-05-04 19:12 | 41.11910 | 2.01836 | 12569 ft | 243 kts | 210° |
| 2026-05-04 19:12 | 41.08887 | 1.99750 | 14739 ft | 248 kts | 210° |
| 2026-05-04 19:12 | 41.07306 | 1.98778 | 15720 ft | 254 kts | 202° |
| 2026-05-04 19:13 | 41.05556 | 1.98141 | 16433 ft | 272 kts | 196° |
| 2026-05-04 19:13 | 41.03563 | 1.97828 | 16731 ft | 306 kts | 184° |
| 2026-05-04 19:13 | 41.01340 | 1.98380 | 16951 ft | 346 kts | 163° |
| 2026-05-04 19:13 | 40.99243 | 2.00261 | 17304 ft | 383 kts | 139° |
| 2026-05-04 19:14 | 40.97753 | 2.03266 | 18098 ft | 401 kts | 117° |
| 2026-05-04 19:14 | 40.97103 | 2.06821 | 18646 ft | 408 kts | 99° |
| 2026-05-04 19:14 | 40.96987 | 2.10595 | 18882 ft | 413 kts | 95° |
| 2026-05-04 19:14 | 40.96895 | 2.14413 | 18924 ft | 414 kts | 97° |
| 2026-05-04 19:15 | 40.96707 | 2.18219 | 18926 ft | 414 kts | 99° |
| 2026-05-04 19:15 | 40.96436 | 2.22006 | 18924 ft | 414 kts | 100° |
| 2026-05-04 19:15 | 40.96107 | 2.25799 | 18924 ft | 414 kts | 101° |
| 2026-05-04 19:15 | 40.95746 | 2.29589 | 18903 ft | 414 kts | 102° |
| 2026-05-04 19:16 | 40.95373 | 2.33308 | 18926 ft | 413 kts | 102° |
| 2026-05-04 19:16 | 40.94985 | 2.37078 | 18927 ft | 413 kts | 102° |
| 2026-05-04 19:16 | 40.94590 | 2.40841 | 18928 ft | 413 kts | 102° |
| 2026-05-04 19:16 | 40.94192 | 2.44609 | 18928 ft | 413 kts | 102° |
| 2026-05-04 19:17 | 40.93790 | 2.48382 | 18925 ft | 413 kts | 102° |
| 2026-05-04 19:17 | 40.93388 | 2.52136 | 18925 ft | 413 kts | 102° |
| 2026-05-04 19:17 | 40.92983 | 2.55907 | 18924 ft | 413 kts | 102° |
| 2026-05-04 19:17 | 40.92576 | 2.59679 | 18925 ft | 413 kts | 102° |
| 2026-05-04 19:18 | 40.92307 | 2.62161 | 18925 ft | 413 kts | 102° |
| 2026-05-04 19:18 | 40.91899 | 2.65931 | 18928 ft | 413 kts | 102° |
| 2026-05-04 19:18 | 40.91489 | 2.69694 | 18919 ft | 414 kts | 102° |
| 2026-05-04 19:18 | 40.91079 | 2.73448 | 18924 ft | 413 kts | 102° |
| 2026-05-04 19:19 | 40.90667 | 2.77217 | 18930 ft | 413 kts | 102° |
| 2026-05-04 19:19 | 40.90253 | 2.80986 | 18929 ft | 413 kts | 102° |
| 2026-05-04 19:19 | 40.89838 | 2.84754 | 18926 ft | 413 kts | 102° |
| 2026-05-04 19:19 | 40.89421 | 2.88525 | 18926 ft | 413 kts | 102° |
| 2026-05-04 19:20 | 40.89011 | 2.92224 | 18930 ft | 413 kts | 102° |
| 2026-05-04 19:20 | 40.88593 | 2.95992 | 18933 ft | 413 kts | 102° |
| 2026-05-04 19:20 | 40.88174 | 2.99750 | 18933 ft | 413 kts | 102° |
| 2026-05-04 19:20 | 40.87755 | 3.03498 | 18928 ft | 413 kts | 102° |
| 2026-05-04 19:21 | 40.87333 | 3.07251 | 18921 ft | 413 kts | 102° |
| 2026-05-04 19:21 | 40.86910 | 3.11011 | 18926 ft | 412 kts | 102° |
| 2026-05-04 19:21 | 40.86390 | 3.14723 | 18917 ft | 409 kts | 109° |
| 2026-05-04 19:21 | 40.85335 | 3.18161 | 18932 ft | 403 kts | 121° |
| 2026-05-04 19:22 | 40.84004 | 3.21414 | 18931 ft | 402 kts | 124° |
| 2026-05-04 19:22 | 40.82614 | 3.24612 | 18917 ft | 401 kts | 124° |
| 2026-05-04 19:22 | 40.81212 | 3.27812 | 18917 ft | 401 kts | 124° |
| 2026-05-04 19:22 | 40.79819 | 3.31000 | 18917 ft | 402 kts | 124° |
| 2026-05-04 19:23 | 40.78426 | 3.34198 | 18922 ft | 402 kts | 124° |
| 2026-05-04 19:23 | 40.77038 | 3.37392 | 18932 ft | 402 kts | 124° |
| 2026-05-04 19:23 | 40.75647 | 3.40595 | 18933 ft | 401 kts | 124° |
| 2026-05-04 19:23 | 40.74098 | 3.43607 | 18931 ft | 396 kts | 134° |
| 2026-05-04 19:24 | 40.72264 | 3.46307 | 18927 ft | 393 kts | 139° |
| 2026-05-04 19:24 | 40.70371 | 3.48839 | 18929 ft | 392 kts | 140° |
| 2026-05-04 19:24 | 40.68454 | 3.51320 | 18522 ft | 382 kts | 141° |
| 2026-05-04 19:24 | 40.66535 | 3.53764 | 17561 ft | 384 kts | 141° |
| 2026-05-04 19:25 | 40.64607 | 3.56198 | 16685 ft | 383 kts | 141° |
| 2026-05-04 19:25 | 40.62695 | 3.58609 | 15986 ft | 377 kts | 141° |
| 2026-05-04 19:25 | 40.60811 | 3.60981 | 15303 ft | 371 kts | 141° |
| 2026-05-04 19:25 | 40.58959 | 3.63309 | 14610 ft | 366 kts | 141° |
| 2026-05-04 19:26 | 40.57130 | 3.65605 | 13917 ft | 362 kts | 141° |
| 2026-05-04 19:26 | 40.55312 | 3.67884 | 13172 ft | 358 kts | 141° |
| 2026-05-04 19:26 | 40.53516 | 3.70133 | 12397 ft | 354 kts | 141° |
| 2026-05-04 19:26 | 40.51757 | 3.72336 | 11628 ft | 352 kts | 141° |
| 2026-05-04 19:27 | 40.49988 | 3.74547 | 10895 ft | 348 kts | 141° |
| 2026-05-04 19:27 | 40.48240 | 3.76732 | 10189 ft | 345 kts | 141° |
| 2026-05-04 19:27 | 40.46533 | 3.78868 | 9887 ft | 329 kts | 141° |
| 2026-05-04 19:27 | 40.44931 | 3.80876 | 9727 ft | 309 kts | 141° |
| 2026-05-04 19:28 | 40.43416 | 3.82771 | 9492 ft | 293 kts | 142° |
| 2026-05-04 19:28 | 40.41954 | 3.84594 | 9051 ft | 287 kts | 142° |
| 2026-05-04 19:28 | 40.40516 | 3.86378 | 8472 ft | 287 kts | 142° |
| 2026-05-04 19:28 | 40.39067 | 3.88177 | 7930 ft | 286 kts | 142° |
| 2026-05-04 19:29 | 40.37607 | 3.89990 | 7411 ft | 284 kts | 141° |
| 2026-05-04 19:29 | 40.36200 | 3.91738 | 6931 ft | 281 kts | 141° |
| 2026-05-04 19:29 | 40.34787 | 3.93493 | 6442 ft | 278 kts | 141° |
| 2026-05-04 19:29 | 40.33390 | 3.95227 | 5939 ft | 275 kts | 141° |
| 2026-05-04 19:30 | 40.32004 | 3.96947 | 5404 ft | 274 kts | 141° |
| 2026-05-04 19:30 | 40.30622 | 3.98660 | 4889 ft | 273 kts | 140° |
| 2026-05-04 19:30 | 40.29241 | 4.00372 | 4357 ft | 272 kts | 140° |
| 2026-05-04 19:30 | 40.27874 | 4.02065 | 3869 ft | 270 kts | 140° |
| 2026-05-04 19:31 | 40.26511 | 4.03755 | 3364 ft | 268 kts | 140° |
| 2026-05-04 19:31 | 40.25157 | 4.05431 | 3041 ft | 267 kts | 141° |
| 2026-05-04 19:31 | 40.23814 | 4.07091 | 2976 ft | 266 kts | 141° |
| 2026-05-04 19:31 | 40.22516 | 4.08699 | 2963 ft | 250 kts | 141° |
| 2026-05-04 19:32 | 40.21293 | 4.10217 | 2998 ft | 235 kts | 141° |
| 2026-05-04 19:32 | 40.20113 | 4.11674 | 2984 ft | 233 kts | 141° |
| 2026-05-04 19:32 | 40.18931 | 4.13128 | 2980 ft | 233 kts | 141° |
| 2026-05-04 19:32 | 40.17751 | 4.14579 | 2975 ft | 233 kts | 142° |
| 2026-05-04 19:33 | 40.16568 | 4.16035 | 2977 ft | 234 kts | 142° |
| 2026-05-04 19:33 | 40.15376 | 4.17502 | 2977 ft | 236 kts | 141° |
| 2026-05-04 19:33 | 40.14182 | 4.18972 | 2977 ft | 236 kts | 141° |
| 2026-05-04 19:33 | 40.12986 | 4.20444 | 2983 ft | 236 kts | 142° |
| 2026-05-04 19:34 | 40.11790 | 4.21916 | 2985 ft | 235 kts | 142° |
| 2026-05-04 19:34 | 40.10615 | 4.23363 | 2979 ft | 227 kts | 142° |
| 2026-05-04 19:34 | 40.09496 | 4.24737 | 2979 ft | 217 kts | 144° |
| 2026-05-04 19:34 | 40.08280 | 4.25818 | 2991 ft | 207 kts | 161° |
| 2026-05-04 19:35 | 40.06917 | 4.26213 | 2989 ft | 198 kts | 188° |
| 2026-05-04 19:35 | 40.05565 | 4.25970 | 2993 ft | 195 kts | 193° |
| 2026-05-04 19:35 | 40.04226 | 4.25652 | 2987 ft | 196 kts | 195° |
| 2026-05-04 19:35 | 40.02899 | 4.25301 | 2993 ft | 195 kts | 195° |
| 2026-05-04 19:36 | 40.01578 | 4.24979 | 2984 ft | 188 kts | 194° |
| 2026-05-04 19:36 | 40.00324 | 4.24732 | 2966 ft | 176 kts | 192° |
| 2026-05-04 19:36 | 39.99147 | 4.24545 | 2738 ft | 165 kts | 193° |
| 2026-05-04 19:36 | 39.98099 | 4.24322 | 2477 ft | 152 kts | 195° |
| 2026-05-04 19:37 | 39.97094 | 4.24097 | 2289 ft | 145 kts | 194° |
| 2026-05-04 19:37 | 39.96106 | 4.23894 | 2104 ft | 142 kts | 194° |
| 2026-05-04 19:37 | 39.95144 | 4.23698 | 1907 ft | 141 kts | 194° |
| 2026-05-04 19:37 | 39.94225 | 4.23508 | 1735 ft | 139 kts | 194° |
| 2026-05-04 19:38 | 39.93285 | 4.23313 | 1555 ft | 137 kts | 194° |
| 2026-05-04 19:38 | 39.92339 | 4.23118 | 1367 ft | 136 kts | 194° |
| 2026-05-04 19:38 | 39.91432 | 4.22933 | 1185 ft | 131 kts | 194° |
| 2026-05-04 19:38 | 39.90810 | 4.22803 | 1063 ft | 134 kts | 195° |
| 2026-05-04 19:39 | 39.90531 | 4.22744 | 1013 ft | 134 kts | 194° |
| 2026-05-04 19:39 | 39.89606 | 4.22555 | 835 ft | 136 kts | 195° |
| 2026-05-04 19:39 | 39.88667 | 4.22351 | 677 ft | 135 kts | 191° |
| 2026-05-04 19:40 | 39.87734 | 4.22169 | 466 ft | 138 kts | 191° |
| 2026-05-04 19:40 | 39.86805 | 4.21981 | 308 ft | 129 kts | 191° |
| 2026-05-04 19:40 | 39.86134 | 4.21841 | 304 ft | 56 kts | 189° |
| 2026-05-04 19:40 | 39.85910 | 4.21794 | 305 ft | 27 kts | 188° |
| 2026-05-04 19:41 | 39.85729 | 4.21757 | 303 ft | 27 kts | 186° |
| 2026-05-04 19:41 | 39.85546 | 4.21779 | 299 ft | 28 kts | 161° |
| 2026-05-04 19:41 | 39.85404 | 4.21875 | 296 ft | 18 kts | 107° |
| 2026-05-04 19:41 | 39.85459 | 4.21939 | 297 ft | 12 kts | 7° |
| 2026-05-04 19:42 | 39.85547 | 4.21956 | 298 ft | 16 kts | 9° |
| 2026-05-04 19:42 | 39.85678 | 4.21983 | 301 ft | 22 kts | 9° |
| 2026-05-04 19:42 | 39.85854 | 4.22020 | 301 ft | 29 kts | 10° |
| 2026-05-04 19:42 | 39.86068 | 4.22062 | 303 ft | 23 kts | 10° |
| 2026-05-04 19:43 | 39.86186 | 4.22126 | 300 ft | 18 kts | 70° |
| 2026-05-04 19:43 | 39.86210 | 4.22258 | 299 ft | 15 kts | 27° |
| 2026-05-04 19:43 | 39.86312 | 4.22289 | 300 ft | 13 kts | 30° |
| 2026-05-04 19:43 | 39.86324 | 4.22325 | 299 ft | 7 kts | 95° |
| 2026-05-04 19:44 | 39.86319 | 4.22363 | 300 ft | 1 kts | 99° |
| 2026-05-04 19:44 | 39.86317 | 4.22380 | 300 ft | 0 kts | 99° |
| 2026-05-04 19:54 | 39.90062 | 4.22647 | 927 ft | 135 kts | 194° |
| 2026-05-04 19:54 | 39.87997 | 4.22223 | 522 ft | 138 kts | 191° |
| 2026-05-04 19:55 | 39.86870 | 4.21994 | 310 ft | 126 kts | 191° |
| 2026-05-04 19:55 | 39.86954 | 4.22011 | 314 ft | 132 kts | 191° |
| 2026-05-04 19:55 | 39.86931 | 4.22006 | 316 ft | 132 kts | 191° |
| 2026-05-04 19:56 | 39.87914 | 4.22206 | 503 ft | 132 kts | 191° |
| 2026-05-04 19:56 | 39.87344 | 4.22093 | 380 ft | 137 kts | 191° |
| 2026-05-04 19:56 | 39.86376 | 4.21891 | 300 ft | 96 kts | 189° |
| 2026-05-04 19:56 | 39.87588 | 4.22140 | 426 ft | 138 kts | 191° |
| 2026-05-04 19:57 | 39.86575 | 4.21931 | 303 ft | 119 kts | 189° |
| 2026-05-04 19:57 | 39.87997 | 4.22223 | 522 ft | 139 kts | 191° |
| 2026-05-04 19:57 | 39.87076 | 4.22037 | 326 ft | 135 kts | 192° |
| 2026-05-04 19:57 | 39.87835 | 4.22190 | 478 ft | 134 kts | 191° |
| 2026-05-04 19:58 | 39.87128 | 4.22048 | 332 ft | 136 kts | 192° |
| 2026-05-04 19:58 | 39.87085 | 4.22039 | 327 ft | 135 kts | 192° |
| 2026-05-04 19:58 | 39.86572 | 4.21930 | 305 ft | 119 kts | 189° |
| 2026-05-04 19:58 | 39.87588 | 4.22140 | 426 ft | 129 kts | 191° |
| 2026-05-04 19:59 | 39.86852 | 4.21991 | 311 ft | 130 kts | 191° |
| 2026-05-04 19:59 | 39.87951 | 4.22213 | 512 ft | 139 kts | 191° |
| 2026-05-04 19:59 | 39.86954 | 4.22011 | 318 ft | 132 kts | 191° |
| 2026-05-04 19:59 | 39.86142 | 4.21842 | 301 ft | 58 kts | 189° |
| 2026-05-04 20:00 | 39.85866 | 4.21785 | 304 ft | 27 kts | 188° |
| 2026-05-04 20:00 | 39.85717 | 4.21756 | 302 ft | 27 kts | 183° |
| 2026-05-04 20:00 | 39.85410 | 4.21859 | 294 ft | 18 kts | 122° |
| 2026-05-04 20:00 | 39.85441 | 4.21936 | 295 ft | 11 kts | 7° |
| 2026-05-04 20:01 | 39.85541 | 4.21955 | 300 ft | 15 kts | 9° |
| 2026-05-04 20:01 | 39.85700 | 4.21987 | 300 ft | 23 kts | 9° |
| 2026-05-04 20:01 | 39.89166 | 4.22462 | 787 ft | 137 kts | 195° |
| 2026-05-04 20:01 | 39.88289 | 4.22280 | 586 ft | 137 kts | 190° |
| 2026-05-04 20:02 | 39.87367 | 4.22097 | 384 ft | 137 kts | 191° |
| 2026-05-04 20:02 | 39.86441 | 4.21904 | 298 ft | 105 kts | 189° |
| 2026-05-04 20:02 | 39.87997 | 4.22223 | 522 ft | 134 kts | 191° |
| 2026-05-04 20:02 | 39.87211 | 4.22066 | 351 ft | 137 kts | 191° |
| 2026-05-04 20:03 | 39.86304 | 4.21876 | 297 ft | 87 kts | 189° |
| 2026-05-04 20:03 | 39.85972 | 4.21806 | 303 ft | 28 kts | 189° |
| 2026-05-04 20:03 | 39.85767 | 4.21765 | 302 ft | 27 kts | 189° |
| 2026-05-04 20:03 | 39.88160 | 4.22255 | 560 ft | 138 kts | 191° |
| 2026-05-04 20:04 | 39.87203 | 4.22064 | 357 ft | 137 kts | 191° |
| 2026-05-04 20:04 | 39.86302 | 4.21875 | 297 ft | 86 kts | 189° |
| 2026-05-04 20:04 | 39.87425 | 4.22109 | 395 ft | 137 kts | 191° |
| 2026-05-04 20:04 | 39.88058 | 4.22235 | 535 ft | 138 kts | 191° |
| 2026-05-04 20:05 | 39.87097 | 4.22041 | 328 ft | 136 kts | 192° |
| 2026-05-04 20:05 | 39.87796 | 4.22182 | 451 ft | 139 kts | 191° |
| 2026-05-04 20:05 | 39.89184 | 4.22466 | 787 ft | 137 kts | 195° |
| 2026-05-04 20:05 | 39.88244 | 4.22271 | 574 ft | 137 kts | 190° |
| 2026-05-04 20:06 | 39.87273 | 4.22078 | 365 ft | 137 kts | 191° |
| 2026-05-04 20:06 | 39.86360 | 4.21887 | 299 ft | 94 kts | 189° |
| 2026-05-04 20:06 | 39.85988 | 4.21809 | 305 ft | 28 kts | 189° |
| 2026-05-04 20:06 | 39.85776 | 4.21767 | 303 ft | 27 kts | 189° |
| 2026-05-04 20:07 | 39.85588 | 4.21764 | 301 ft | 26 kts | 168° |
| 2026-05-04 20:07 | 39.85411 | 4.21855 | 294 ft | 18 kts | 126° |
| 2026-05-04 20:07 | 39.85447 | 4.21937 | 295 ft | 11 kts | 7° |
| 2026-05-04 20:07 | 39.85522 | 4.21951 | 299 ft | 14 kts | 9° |
| 2026-05-04 20:08 | 39.85626 | 4.21972 | 299 ft | 20 kts | 9° |
| 2026-05-04 20:08 | 39.85770 | 4.22001 | 303 ft | 26 kts | 8° |
| 2026-05-04 20:08 | 39.89661 | 4.22566 | 842 ft | 136 kts | 195° |
| 2026-05-04 20:08 | 39.88800 | 4.22380 | 711 ft | 136 kts | 192° |
| 2026-05-04 20:09 | 39.87921 | 4.22207 | 506 ft | 139 kts | 191° |
| 2026-05-04 20:09 | 39.90215 | 4.22678 | 950 ft | 124 kts | 193° |
| 2026-05-04 20:09 | 39.89456 | 4.22524 | 821 ft | 137 kts | 195° |
| 2026-05-04 20:09 | 39.88539 | 4.22326 | 654 ft | 136 kts | 191° |
| 2026-05-04 20:10 | 39.87616 | 4.22146 | 442 ft | 138 kts | 191° |
| 2026-05-04 20:10 | 39.86604 | 4.21938 | 303 ft | 122 kts | 190° |
| 2026-05-04 20:10 | 39.90113 | 4.22657 | 936 ft | 135 kts | 193° |
| 2026-05-04 20:10 | 39.89214 | 4.22473 | 792 ft | 137 kts | 195° |
| 2026-05-04 20:11 | 39.88244 | 4.22271 | 577 ft | 137 kts | 190° |
| 2026-05-04 20:11 | 39.87281 | 4.22080 | 366 ft | 137 kts | 191° |
| 2026-05-04 20:11 | 39.86368 | 4.21889 | 299 ft | 96 kts | 189° |
| 2026-05-04 20:11 | 39.85983 | 4.21808 | 303 ft | 28 kts | 189° |
| 2026-05-04 20:12 | 39.86317 | 4.22380 | 302 ft | 0 kts | 99° |